sensor_id;sensor_type;location;lat;lon;timestamp;P1;durP1;ratioP1;P2;durP2;ratioP2
60859;SDS011;46694;54.382;9.708;2022-10-22T00:02:19;52.10;;;26.70;;
60859;SDS011;46694;54.382;9.708;2022-10-22T00:04:59;50.30;;;29.20;;
60859;SDS011;46694;54.382;9.708;2022-10-22T00:07:38;48.97;;;28.00;;
60859;SDS011;46694;54.382;9.708;2022-10-22T00:10:18;50.17;;;27.03;;
60859;SDS011;46694;54.382;9.708;2022-10-22T00:12:57;35.80;;;25.77;;
60859;SDS011;46694;54.382;9.708;2022-10-22T00:15:38;40.23;;;24.87;;
60859;SDS011;46694;54.382;9.708;2022-10-22T00:18:17;40.73;;;26.60;;
60859;SDS011;46694;54.382;9.708;2022-10-22T00:20:57;38.07;;;25.50;;
60859;SDS011;46694;54.382;9.708;2022-10-22T00:23:39;54.40;;;27.00;;
60859;SDS011;46694;54.382;9.708;2022-10-22T00:26:20;39.00;;;24.77;;
60859;SDS011;46694;54.382;9.708;2022-10-22T00:29:03;44.00;;;26.40;;
60859;SDS011;46694;54.382;9.708;2022-10-22T00:31:43;36.33;;;22.63;;
60859;SDS011;46694;54.382;9.708;2022-10-22T00:34:27;34.53;;;23.43;;
60859;SDS011;46694;54.382;9.708;2022-10-22T00:37:06;39.07;;;24.03;;
60859;SDS011;46694;54.382;9.708;2022-10-22T00:39:46;53.93;;;28.87;;
60859;SDS011;46694;54.382;9.708;2022-10-22T00:42:26;43.07;;;26.53;;
60859;SDS011;46694;54.382;9.708;2022-10-22T00:53:40;45.10;;;25.10;;
60859;SDS011;46694;54.382;9.708;2022-10-22T00:56:24;42.90;;;26.30;;
60859;SDS011;46694;54.382;9.708;2022-10-22T01:02:06;58.03;;;30.70;;
60859;SDS011;46694;54.382;9.708;2022-10-22T01:04:45;81.37;;;38.07;;
60859;SDS011;46694;54.382;9.708;2022-10-22T01:07:25;65.00;;;35.90;;
60859;SDS011;46694;54.382;9.708;2022-10-22T01:15:51;64.37;;;36.70;;
60859;SDS011;46694;54.382;9.708;2022-10-22T01:21:49;75.27;;;37.73;;
60859;SDS011;46694;54.382;9.708;2022-10-22T01:27:39;53.77;;;31.53;;
60859;SDS011;46694;54.382;9.708;2022-10-22T01:30:28;53.57;;;31.30;;
60859;SDS011;46694;54.382;9.708;2022-10-22T01:33:09;48.40;;;28.20;;
60859;SDS011;46694;54.382;9.708;2022-10-22T01:35:51;43.23;;;27.87;;
60859;SDS011;46694;54.382;9.708;2022-10-22T01:38:31;38.40;;;26.60;;
60859;SDS011;46694;54.382;9.708;2022-10-22T01:41:11;38.43;;;26.23;;
60859;SDS011;46694;54.382;9.708;2022-10-22T01:43:52;39.90;;;27.40;;
60859;SDS011;46694;54.382;9.708;2022-10-22T01:46:31;40.03;;;26.40;;
60859;SDS011;46694;54.382;9.708;2022-10-22T01:49:14;41.93;;;27.10;;
60859;SDS011;46694;54.382;9.708;2022-10-22T01:55:06;66.20;;;30.73;;
60859;SDS011;46694;54.382;9.708;2022-10-22T02:01:19;52.80;;;31.23;;
60859;SDS011;46694;54.382;9.708;2022-10-22T02:04:20;72.53;;;37.53;;
60859;SDS011;46694;54.382;9.708;2022-10-22T02:07:07;67.40;;;36.07;;
60859;SDS011;46694;54.382;9.708;2022-10-22T02:09:52;71.70;;;39.10;;
60859;SDS011;46694;54.382;9.708;2022-10-22T02:12:33;77.47;;;38.40;;
60859;SDS011;46694;54.382;9.708;2022-10-22T02:15:13;84.33;;;40.23;;
60859;SDS011;46694;54.382;9.708;2022-10-22T02:17:56;78.20;;;37.77;;
60859;SDS011;46694;54.382;9.708;2022-10-22T02:20:37;74.90;;;39.73;;
60859;SDS011;46694;54.382;9.708;2022-10-22T02:23:19;66.10;;;39.77;;
60859;SDS011;46694;54.382;9.708;2022-10-22T02:29:14;80.73;;;40.50;;
60859;SDS011;46694;54.382;9.708;2022-10-22T02:32:00;78.57;;;40.57;;
60859;SDS011;46694;54.382;9.708;2022-10-22T02:34:40;79.73;;;41.20;;
60859;SDS011;46694;54.382;9.708;2022-10-22T02:37:20;74.33;;;41.00;;
60859;SDS011;46694;54.382;9.708;2022-10-22T02:40:02;78.13;;;38.50;;
60859;SDS011;46694;54.382;9.708;2022-10-22T02:42:42;96.33;;;43.37;;
60859;SDS011;46694;54.382;9.708;2022-10-22T02:45:25;87.93;;;42.50;;
60859;SDS011;46694;54.382;9.708;2022-10-22T02:48:05;91.40;;;41.27;;
60859;SDS011;46694;54.382;9.708;2022-10-22T02:53:46;89.87;;;43.50;;
60859;SDS011;46694;54.382;9.708;2022-10-22T02:56:25;83.90;;;39.80;;
60859;SDS011;46694;54.382;9.708;2022-10-22T02:59:05;103.50;;;44.13;;
60859;SDS011;46694;54.382;9.708;2022-10-22T03:01:45;91.27;;;42.57;;
60859;SDS011;46694;54.382;9.708;2022-10-22T03:04:24;93.07;;;43.17;;
60859;SDS011;46694;54.382;9.708;2022-10-22T03:07:04;105.17;;;45.83;;
60859;SDS011;46694;54.382;9.708;2022-10-22T03:09:43;97.67;;;46.17;;
60859;SDS011;46694;54.382;9.708;2022-10-22T03:12:23;111.00;;;48.20;;
60859;SDS011;46694;54.382;9.708;2022-10-22T03:15:02;94.20;;;45.70;;
60859;SDS011;46694;54.382;9.708;2022-10-22T03:17:43;113.27;;;47.47;;
60859;SDS011;46694;54.382;9.708;2022-10-22T03:20:22;96.23;;;45.80;;
60859;SDS011;46694;54.382;9.708;2022-10-22T03:23:02;133.30;;;51.73;;
60859;SDS011;46694;54.382;9.708;2022-10-22T03:25:41;93.20;;;45.57;;
60859;SDS011;46694;54.382;9.708;2022-10-22T03:28:22;98.83;;;47.40;;
60859;SDS011;46694;54.382;9.708;2022-10-22T03:31:04;94.77;;;45.43;;
60859;SDS011;46694;54.382;9.708;2022-10-22T03:33:44;93.33;;;45.73;;
60859;SDS011;46694;54.382;9.708;2022-10-22T03:36:24;93.57;;;44.17;;
60859;SDS011;46694;54.382;9.708;2022-10-22T03:39:04;87.73;;;44.20;;
60859;SDS011;46694;54.382;9.708;2022-10-22T03:41:45;90.63;;;41.23;;
60859;SDS011;46694;54.382;9.708;2022-10-22T03:44:26;85.60;;;42.70;;
60859;SDS011;46694;54.382;9.708;2022-10-22T03:47:06;98.47;;;46.47;;
60859;SDS011;46694;54.382;9.708;2022-10-22T03:49:46;112.63;;;48.57;;
60859;SDS011;46694;54.382;9.708;2022-10-22T03:52:26;127.33;;;49.87;;
60859;SDS011;46694;54.382;9.708;2022-10-22T03:55:06;103.33;;;47.70;;
60859;SDS011;46694;54.382;9.708;2022-10-22T03:57:46;99.97;;;46.90;;
60859;SDS011;46694;54.382;9.708;2022-10-22T04:00:26;96.73;;;45.23;;
60859;SDS011;46694;54.382;9.708;2022-10-22T04:03:05;101.73;;;45.17;;
60859;SDS011;46694;54.382;9.708;2022-10-22T04:05:45;121.57;;;45.83;;
60859;SDS011;46694;54.382;9.708;2022-10-22T04:08:25;114.60;;;45.40;;
60859;SDS011;46694;54.382;9.708;2022-10-22T04:11:05;99.77;;;46.13;;
60859;SDS011;46694;54.382;9.708;2022-10-22T04:13:44;130.10;;;47.90;;
60859;SDS011;46694;54.382;9.708;2022-10-22T04:16:24;122.43;;;47.37;;
60859;SDS011;46694;54.382;9.708;2022-10-22T04:19:08;96.90;;;43.20;;
60859;SDS011;46694;54.382;9.708;2022-10-22T04:21:48;122.43;;;42.47;;
60859;SDS011;46694;54.382;9.708;2022-10-22T04:24:28;118.97;;;45.40;;
60859;SDS011;46694;54.382;9.708;2022-10-22T04:27:09;157.50;;;46.00;;
60859;SDS011;46694;54.382;9.708;2022-10-22T04:29:49;123.03;;;44.27;;
60859;SDS011;46694;54.382;9.708;2022-10-22T04:32:28;131.87;;;46.20;;
60859;SDS011;46694;54.382;9.708;2022-10-22T04:35:08;177.57;;;50.80;;
60859;SDS011;46694;54.382;9.708;2022-10-22T04:37:47;234.50;;;53.07;;
60859;SDS011;46694;54.382;9.708;2022-10-22T04:40:27;306.70;;;56.23;;
60859;SDS011;46694;54.382;9.708;2022-10-22T04:43:06;250.47;;;55.63;;
60859;SDS011;46694;54.382;9.708;2022-10-22T04:45:46;195.63;;;49.63;;
60859;SDS011;46694;54.382;9.708;2022-10-22T04:48:26;111.80;;;46.43;;
60859;SDS011;46694;54.382;9.708;2022-10-22T04:51:06;97.17;;;42.33;;
60859;SDS011;46694;54.382;9.708;2022-10-22T04:53:48;122.53;;;46.20;;
60859;SDS011;46694;54.382;9.708;2022-10-22T04:56:29;105.07;;;43.23;;
60859;SDS011;46694;54.382;9.708;2022-10-22T04:59:10;107.10;;;41.40;;
60859;SDS011;46694;54.382;9.708;2022-10-22T05:01:50;91.97;;;42.90;;
60859;SDS011;46694;54.382;9.708;2022-10-22T05:04:30;88.27;;;40.50;;
60859;SDS011;46694;54.382;9.708;2022-10-22T05:07:10;79.93;;;41.70;;
60859;SDS011;46694;54.382;9.708;2022-10-22T05:09:49;97.90;;;39.70;;
60859;SDS011;46694;54.382;9.708;2022-10-22T05:12:29;78.10;;;39.47;;
60859;SDS011;46694;54.382;9.708;2022-10-22T05:15:09;93.67;;;42.87;;
60859;SDS011;46694;54.382;9.708;2022-10-22T05:17:48;126.20;;;41.03;;
60859;SDS011;46694;54.382;9.708;2022-10-22T05:20:28;450.80;;;47.80;;
60859;SDS011;46694;54.382;9.708;2022-10-22T05:23:08;267.93;;;43.93;;
60859;SDS011;46694;54.382;9.708;2022-10-22T05:25:47;98.53;;;40.83;;
60859;SDS011;46694;54.382;9.708;2022-10-22T05:28:27;100.43;;;43.37;;
60859;SDS011;46694;54.382;9.708;2022-10-22T05:31:07;402.93;;;49.03;;
60859;SDS011;46694;54.382;9.708;2022-10-22T05:33:49;149.87;;;41.23;;
60859;SDS011;46694;54.382;9.708;2022-10-22T05:36:28;368.60;;;52.10;;
60859;SDS011;46694;54.382;9.708;2022-10-22T05:39:08;190.77;;;41.60;;
60859;SDS011;46694;54.382;9.708;2022-10-22T05:41:47;316.70;;;45.10;;
60859;SDS011;46694;54.382;9.708;2022-10-22T05:44:27;226.80;;;40.23;;
60859;SDS011;46694;54.382;9.708;2022-10-22T05:47:07;281.93;;;40.40;;
60859;SDS011;46694;54.382;9.708;2022-10-22T05:49:47;81.57;;;36.00;;
60859;SDS011;46694;54.382;9.708;2022-10-22T05:52:27;128.13;;;35.60;;
60859;SDS011;46694;54.382;9.708;2022-10-22T05:55:07;88.50;;;35.13;;
60859;SDS011;46694;54.382;9.708;2022-10-22T05:57:47;122.93;;;36.37;;
60859;SDS011;46694;54.382;9.708;2022-10-22T06:00:27;134.57;;;33.40;;
60859;SDS011;46694;54.382;9.708;2022-10-22T06:03:07;85.27;;;32.63;;
60859;SDS011;46694;54.382;9.708;2022-10-22T06:05:46;214.53;;;36.90;;
60859;SDS011;46694;54.382;9.708;2022-10-22T06:08:26;486.80;;;50.40;;
60859;SDS011;46694;54.382;9.708;2022-10-22T06:11:07;359.83;;;42.50;;
60859;SDS011;46694;54.382;9.708;2022-10-22T06:13:47;149.23;;;38.17;;
60859;SDS011;46694;54.382;9.708;2022-10-22T06:16:27;417.53;;;43.87;;
60859;SDS011;46694;54.382;9.708;2022-10-22T06:19:09;208.73;;;40.77;;
60859;SDS011;46694;54.382;9.708;2022-10-22T06:21:51;419.97;;;45.87;;
60859;SDS011;46694;54.382;9.708;2022-10-22T06:24:31;136.70;;;37.67;;
60859;SDS011;46694;54.382;9.708;2022-10-22T06:27:10;405.37;;;50.50;;
60859;SDS011;46694;54.382;9.708;2022-10-22T06:29:50;468.13;;;52.53;;
60859;SDS011;46694;54.382;9.708;2022-10-22T06:32:29;369.33;;;50.00;;
60859;SDS011;46694;54.382;9.708;2022-10-22T06:35:09;185.60;;;45.20;;
60859;SDS011;46694;54.382;9.708;2022-10-22T06:37:49;113.53;;;41.60;;
60859;SDS011;46694;54.382;9.708;2022-10-22T06:40:28;202.40;;;43.77;;
60859;SDS011;46694;54.382;9.708;2022-10-22T06:43:08;158.93;;;42.17;;
60859;SDS011;46694;54.382;9.708;2022-10-22T06:45:52;369.17;;;49.00;;
60859;SDS011;46694;54.382;9.708;2022-10-22T06:48:40;308.30;;;48.97;;
60859;SDS011;46694;54.382;9.708;2022-10-22T06:51:19;461.47;;;56.57;;
60859;SDS011;46694;54.382;9.708;2022-10-22T06:53:59;349.23;;;51.40;;
60859;SDS011;46694;54.382;9.708;2022-10-22T06:56:39;228.30;;;45.23;;
60859;SDS011;46694;54.382;9.708;2022-10-22T06:59:19;99.10;;;41.20;;
60859;SDS011;46694;54.382;9.708;2022-10-22T07:01:58;212.60;;;42.07;;
60859;SDS011;46694;54.382;9.708;2022-10-22T07:04:38;85.77;;;40.83;;
60859;SDS011;46694;54.382;9.708;2022-10-22T07:07:17;99.33;;;42.03;;
60859;SDS011;46694;54.382;9.708;2022-10-22T07:09:57;104.03;;;40.70;;
60859;SDS011;46694;54.382;9.708;2022-10-22T07:12:36;119.00;;;44.60;;
60859;SDS011;46694;54.382;9.708;2022-10-22T07:15:16;175.07;;;42.30;;
60859;SDS011;46694;54.382;9.708;2022-10-22T07:17:56;82.73;;;40.47;;
60859;SDS011;46694;54.382;9.708;2022-10-22T07:20:35;78.97;;;39.60;;
60859;SDS011;46694;54.382;9.708;2022-10-22T07:23:15;92.83;;;40.17;;
60859;SDS011;46694;54.382;9.708;2022-10-22T07:25:54;122.70;;;43.67;;
60859;SDS011;46694;54.382;9.708;2022-10-22T07:28:35;211.87;;;49.10;;
60859;SDS011;46694;54.382;9.708;2022-10-22T07:31:17;182.73;;;48.47;;
60859;SDS011;46694;54.382;9.708;2022-10-22T07:33:57;151.97;;;45.40;;
60859;SDS011;46694;54.382;9.708;2022-10-22T07:36:49;248.17;;;48.63;;
60859;SDS011;46694;54.382;9.708;2022-10-22T07:39:29;112.57;;;43.27;;
60859;SDS011;46694;54.382;9.708;2022-10-22T07:42:08;202.07;;;47.10;;
60859;SDS011;46694;54.382;9.708;2022-10-22T07:44:48;330.53;;;53.90;;
60859;SDS011;46694;54.382;9.708;2022-10-22T07:47:28;368.30;;;58.20;;
60859;SDS011;46694;54.382;9.708;2022-10-22T07:50:07;221.03;;;48.87;;
60859;SDS011;46694;54.382;9.708;2022-10-22T07:52:47;118.70;;;43.10;;
60859;SDS011;46694;54.382;9.708;2022-10-22T07:55:27;107.67;;;44.27;;
60859;SDS011;46694;54.382;9.708;2022-10-22T07:58:06;276.93;;;54.13;;
60859;SDS011;46694;54.382;9.708;2022-10-22T08:00:46;307.03;;;53.70;;
60859;SDS011;46694;54.382;9.708;2022-10-22T08:03:26;192.73;;;51.47;;
60859;SDS011;46694;54.382;9.708;2022-10-22T08:06:08;241.17;;;49.60;;
60859;SDS011;46694;54.382;9.708;2022-10-22T08:08:50;355.90;;;58.20;;
60859;SDS011;46694;54.382;9.708;2022-10-22T08:11:30;213.33;;;53.20;;
60859;SDS011;46694;54.382;9.708;2022-10-22T08:14:11;304.63;;;56.03;;
60859;SDS011;46694;54.382;9.708;2022-10-22T08:16:51;323.63;;;59.20;;
60859;SDS011;46694;54.382;9.708;2022-10-22T08:19:30;413.43;;;70.07;;
60859;SDS011;46694;54.382;9.708;2022-10-22T08:22:10;365.67;;;59.60;;
60859;SDS011;46694;54.382;9.708;2022-10-22T08:24:50;180.60;;;47.77;;
60859;SDS011;46694;54.382;9.708;2022-10-22T08:27:30;177.00;;;48.77;;
60859;SDS011;46694;54.382;9.708;2022-10-22T08:30:09;203.30;;;50.67;;
60859;SDS011;46694;54.382;9.708;2022-10-22T08:32:50;152.67;;;49.90;;
60859;SDS011;46694;54.382;9.708;2022-10-22T08:35:30;188.07;;;51.90;;
60859;SDS011;46694;54.382;9.708;2022-10-22T08:38:09;144.97;;;52.50;;
60859;SDS011;46694;54.382;9.708;2022-10-22T08:40:50;209.87;;;54.80;;
60859;SDS011;46694;54.382;9.708;2022-10-22T08:46:51;204.37;;;57.00;;
60859;SDS011;46694;54.382;9.708;2022-10-22T08:49:54;218.23;;;58.23;;
60859;SDS011;46694;54.382;9.708;2022-10-22T08:52:36;316.30;;;62.77;;
60859;SDS011;46694;54.382;9.708;2022-10-22T08:55:19;152.97;;;54.30;;
60859;SDS011;46694;54.382;9.708;2022-10-22T09:04:10;142.30;;;51.97;;
60859;SDS011;46694;54.382;9.708;2022-10-22T09:07:03;150.30;;;56.07;;
60859;SDS011;46694;54.382;9.708;2022-10-22T09:09:44;143.77;;;54.43;;
60859;SDS011;46694;54.382;9.708;2022-10-22T09:12:28;133.23;;;53.40;;
60859;SDS011;46694;54.382;9.708;2022-10-22T09:15:11;161.17;;;55.90;;
60859;SDS011;46694;54.382;9.708;2022-10-22T09:21:16;118.60;;;51.70;;
60859;SDS011;46694;54.382;9.708;2022-10-22T09:24:27;131.03;;;53.87;;
60859;SDS011;46694;54.382;9.708;2022-10-22T09:27:25;118.33;;;52.20;;
60859;SDS011;46694;54.382;9.708;2022-10-22T09:30:27;140.90;;;54.57;;
60859;SDS011;46694;54.382;9.708;2022-10-22T09:33:20;101.57;;;49.10;;
60859;SDS011;46694;54.382;9.708;2022-10-22T09:36:06;114.17;;;50.83;;
60859;SDS011;46694;54.382;9.708;2022-10-22T09:38:48;93.40;;;44.83;;
60859;SDS011;46694;54.382;9.708;2022-10-22T09:41:30;101.63;;;47.10;;
60859;SDS011;46694;54.382;9.708;2022-10-22T09:44:11;103.77;;;46.67;;
60859;SDS011;46694;54.382;9.708;2022-10-22T09:46:51;98.63;;;43.37;;
60859;SDS011;46694;54.382;9.708;2022-10-22T09:49:32;117.30;;;43.37;;
60859;SDS011;46694;54.382;9.708;2022-10-22T09:52:25;65.97;;;37.43;;
60859;SDS011;46694;54.382;9.708;2022-10-22T09:55:17;53.40;;;33.83;;
60859;SDS011;46694;54.382;9.708;2022-10-22T09:57:58;53.03;;;36.00;;
60859;SDS011;46694;54.382;9.708;2022-10-22T10:00:39;51.53;;;33.53;;
60859;SDS011;46694;54.382;9.708;2022-10-22T10:03:23;54.20;;;35.40;;
60859;SDS011;46694;54.382;9.708;2022-10-22T10:06:06;48.17;;;32.00;;
60859;SDS011;46694;54.382;9.708;2022-10-22T10:08:46;45.40;;;31.80;;
60859;SDS011;46694;54.382;9.708;2022-10-22T10:14:25;47.53;;;31.63;;
60859;SDS011;46694;54.382;9.708;2022-10-22T10:17:37;45.53;;;30.97;;
60859;SDS011;46694;54.382;9.708;2022-10-22T10:23:21;38.57;;;28.03;;
60859;SDS011;46694;54.382;9.708;2022-10-22T10:29:26;40.03;;;26.63;;
60859;SDS011;46694;54.382;9.708;2022-10-22T10:44:19;26.13;;;20.80;;
60859;SDS011;46694;54.382;9.708;2022-10-22T10:50:28;23.37;;;20.87;;
60859;SDS011;46694;54.382;9.708;2022-10-22T11:06:01;30.70;;;19.90;;
60859;SDS011;46694;54.382;9.708;2022-10-22T11:12:19;32.63;;;19.80;;
60859;SDS011;46694;54.382;9.708;2022-10-22T11:17:53;24.00;;;17.57;;
60859;SDS011;46694;54.382;9.708;2022-10-22T11:20:47;20.93;;;15.43;;
60859;SDS011;46694;54.382;9.708;2022-10-22T11:23:34;23.43;;;13.60;;
60859;SDS011;46694;54.382;9.708;2022-10-22T11:26:38;14.97;;;11.23;;
60859;SDS011;46694;54.382;9.708;2022-10-22T11:29:27;19.20;;;12.50;;
60859;SDS011;46694;54.382;9.708;2022-10-22T11:32:14;21.10;;;11.83;;
60859;SDS011;46694;54.382;9.708;2022-10-22T11:35:02;20.30;;;12.57;;
60859;SDS011;46694;54.382;9.708;2022-10-22T11:37:45;19.70;;;10.30;;
60859;SDS011;46694;54.382;9.708;2022-10-22T11:40:35;18.00;;;9.40;;
60859;SDS011;46694;54.382;9.708;2022-10-22T11:43:31;16.43;;;9.13;;
60859;SDS011;46694;54.382;9.708;2022-10-22T11:49:57;18.03;;;9.80;;
60859;SDS011;46694;54.382;9.708;2022-10-22T11:53:04;22.17;;;10.87;;
60859;SDS011;46694;54.382;9.708;2022-10-22T11:59:07;19.83;;;10.60;;
60859;SDS011;46694;54.382;9.708;2022-10-22T12:02:42;19.37;;;10.07;;
60859;SDS011;46694;54.382;9.708;2022-10-22T12:08:05;17.87;;;10.00;;
60859;SDS011;46694;54.382;9.708;2022-10-22T12:16:58;31.00;;;9.70;;
60859;SDS011;46694;54.382;9.708;2022-10-22T12:19:59;21.63;;;10.83;;
60859;SDS011;46694;54.382;9.708;2022-10-22T12:22:45;18.70;;;9.60;;
60859;SDS011;46694;54.382;9.708;2022-10-22T12:25:28;16.50;;;9.57;;
60859;SDS011;46694;54.382;9.708;2022-10-22T12:28:10;23.27;;;11.37;;
60859;SDS011;46694;54.382;9.708;2022-10-22T12:30:51;17.60;;;10.50;;
60859;SDS011;46694;54.382;9.708;2022-10-22T12:33:30;15.40;;;10.87;;
60859;SDS011;46694;54.382;9.708;2022-10-22T12:36:17;19.70;;;14.57;;
60859;SDS011;46694;54.382;9.708;2022-10-22T12:39:00;24.80;;;14.90;;
60859;SDS011;46694;54.382;9.708;2022-10-22T12:41:42;44.03;;;35.03;;
60859;SDS011;46694;54.382;9.708;2022-10-22T12:44:22;21.10;;;14.30;;
60859;SDS011;46694;54.382;9.708;2022-10-22T12:47:01;20.13;;;11.83;;
60859;SDS011;46694;54.382;9.708;2022-10-22T12:49:41;18.60;;;12.57;;
60859;SDS011;46694;54.382;9.708;2022-10-22T12:52:25;26.23;;;20.77;;
60859;SDS011;46694;54.382;9.708;2022-10-22T12:55:05;26.63;;;19.33;;
60859;SDS011;46694;54.382;9.708;2022-10-22T12:57:47;20.27;;;15.50;;
60859;SDS011;46694;54.382;9.708;2022-10-22T13:00:29;21.57;;;13.73;;
60859;SDS011;46694;54.382;9.708;2022-10-22T13:11:55;24.03;;;14.27;;
60859;SDS011;46694;54.382;9.708;2022-10-22T13:14:43;21.00;;;12.70;;
60859;SDS011;46694;54.382;9.708;2022-10-22T13:17:38;20.43;;;11.53;;
60859;SDS011;46694;54.382;9.708;2022-10-22T13:20:20;18.57;;;10.70;;
60859;SDS011;46694;54.382;9.708;2022-10-22T13:23:02;21.20;;;10.87;;
60859;SDS011;46694;54.382;9.708;2022-10-22T13:25:43;18.73;;;10.53;;
60859;SDS011;46694;54.382;9.708;2022-10-22T13:28:54;22.97;;;12.20;;
60859;SDS011;46694;54.382;9.708;2022-10-22T13:31:36;26.90;;;13.00;;
60859;SDS011;46694;54.382;9.708;2022-10-22T13:34:23;17.27;;;11.00;;
60859;SDS011;46694;54.382;9.708;2022-10-22T13:37:04;26.57;;;14.77;;
60859;SDS011;46694;54.382;9.708;2022-10-22T13:39:46;22.20;;;14.27;;
60859;SDS011;46694;54.382;9.708;2022-10-22T13:42:26;27.73;;;16.13;;
60859;SDS011;46694;54.382;9.708;2022-10-22T13:45:06;42.60;;;18.53;;
60859;SDS011;46694;54.382;9.708;2022-10-22T13:47:52;19.23;;;13.80;;
60859;SDS011;46694;54.382;9.708;2022-10-22T13:50:32;13.57;;;9.30;;
60859;SDS011;46694;54.382;9.708;2022-10-22T13:53:14;18.83;;;8.60;;
60859;SDS011;46694;54.382;9.708;2022-10-22T13:55:57;15.97;;;9.00;;
60859;SDS011;46694;54.382;9.708;2022-10-22T13:58:36;19.30;;;9.50;;
60859;SDS011;46694;54.382;9.708;2022-10-22T14:01:23;18.83;;;9.93;;
60859;SDS011;46694;54.382;9.708;2022-10-22T14:04:05;18.03;;;9.90;;
60859;SDS011;46694;54.382;9.708;2022-10-22T14:06:48;16.13;;;9.50;;
60859;SDS011;46694;54.382;9.708;2022-10-22T14:09:28;20.87;;;9.90;;
60859;SDS011;46694;54.382;9.708;2022-10-22T14:12:09;15.23;;;10.13;;
60859;SDS011;46694;54.382;9.708;2022-10-22T14:14:52;17.27;;;10.60;;
60859;SDS011;46694;54.382;9.708;2022-10-22T14:17:31;20.27;;;11.33;;
60859;SDS011;46694;54.382;9.708;2022-10-22T14:20:18;14.80;;;11.07;;
60859;SDS011;46694;54.382;9.708;2022-10-22T14:23:10;19.97;;;10.30;;
60859;SDS011;46694;54.382;9.708;2022-10-22T14:25:54;27.10;;;11.67;;
60859;SDS011;46694;54.382;9.708;2022-10-22T14:28:34;18.30;;;10.07;;
60859;SDS011;46694;54.382;9.708;2022-10-22T14:31:13;22.60;;;10.40;;
60859;SDS011;46694;54.382;9.708;2022-10-22T14:33:53;23.00;;;9.50;;
60859;SDS011;46694;54.382;9.708;2022-10-22T14:36:33;23.07;;;9.67;;
60859;SDS011;46694;54.382;9.708;2022-10-22T14:39:12;12.30;;;8.53;;
60859;SDS011;46694;54.382;9.708;2022-10-22T14:41:52;20.13;;;8.70;;
60859;SDS011;46694;54.382;9.708;2022-10-22T14:44:31;19.63;;;8.83;;
60859;SDS011;46694;54.382;9.708;2022-10-22T14:47:11;18.97;;;9.23;;
60859;SDS011;46694;54.382;9.708;2022-10-22T14:49:51;18.73;;;9.43;;
60859;SDS011;46694;54.382;9.708;2022-10-22T14:52:31;17.50;;;10.07;;
60859;SDS011;46694;54.382;9.708;2022-10-22T14:55:11;20.97;;;9.70;;
60859;SDS011;46694;54.382;9.708;2022-10-22T14:57:52;20.67;;;10.33;;
60859;SDS011;46694;54.382;9.708;2022-10-22T15:00:32;19.17;;;9.63;;
60859;SDS011;46694;54.382;9.708;2022-10-22T15:03:14;27.27;;;10.93;;
60859;SDS011;46694;54.382;9.708;2022-10-22T15:05:54;18.93;;;10.80;;
60859;SDS011;46694;54.382;9.708;2022-10-22T15:08:34;18.63;;;9.40;;
60859;SDS011;46694;54.382;9.708;2022-10-22T15:11:13;25.07;;;9.57;;
60859;SDS011;46694;54.382;9.708;2022-10-22T15:13:53;22.97;;;10.27;;
60859;SDS011;46694;54.382;9.708;2022-10-22T15:16:32;22.90;;;9.57;;
60859;SDS011;46694;54.382;9.708;2022-10-22T15:19:12;29.53;;;9.60;;
60859;SDS011;46694;54.382;9.708;2022-10-22T15:21:52;17.53;;;9.40;;
60859;SDS011;46694;54.382;9.708;2022-10-22T15:24:31;23.73;;;9.77;;
60859;SDS011;46694;54.382;9.708;2022-10-22T15:27:11;20.30;;;10.03;;
60859;SDS011;46694;54.382;9.708;2022-10-22T15:29:51;22.77;;;11.23;;
60859;SDS011;46694;54.382;9.708;2022-10-22T15:32:31;24.63;;;9.80;;
60859;SDS011;46694;54.382;9.708;2022-10-22T15:35:11;14.40;;;9.50;;
60859;SDS011;46694;54.382;9.708;2022-10-22T15:37:51;29.70;;;15.40;;
60859;SDS011;46694;54.382;9.708;2022-10-22T15:40:30;23.70;;;10.77;;
60859;SDS011;46694;54.382;9.708;2022-10-22T15:43:10;27.63;;;8.73;;
60859;SDS011;46694;54.382;9.708;2022-10-22T15:45:50;24.53;;;8.30;;
60859;SDS011;46694;54.382;9.708;2022-10-22T15:48:53;14.07;;;8.70;;
60859;SDS011;46694;54.382;9.708;2022-10-22T15:51:33;24.67;;;8.03;;
60859;SDS011;46694;54.382;9.708;2022-10-22T15:54:14;16.70;;;6.67;;
60859;SDS011;46694;54.382;9.708;2022-10-22T15:57:03;23.97;;;7.83;;
60859;SDS011;46694;54.382;9.708;2022-10-22T15:59:46;19.63;;;8.30;;
60859;SDS011;46694;54.382;9.708;2022-10-22T16:02:27;16.73;;;7.07;;
60859;SDS011;46694;54.382;9.708;2022-10-22T16:05:07;24.40;;;7.03;;
60859;SDS011;46694;54.382;9.708;2022-10-22T16:07:47;33.70;;;16.07;;
60859;SDS011;46694;54.382;9.708;2022-10-22T16:10:29;36.97;;;21.20;;
60859;SDS011;46694;54.382;9.708;2022-10-22T16:13:09;50.23;;;26.73;;
60859;SDS011;46694;54.382;9.708;2022-10-22T16:15:49;24.67;;;14.07;;
60859;SDS011;46694;54.382;9.708;2022-10-22T16:18:29;31.57;;;22.23;;
60859;SDS011;46694;54.382;9.708;2022-10-22T16:21:12;21.87;;;7.97;;
60859;SDS011;46694;54.382;9.708;2022-10-22T16:23:52;20.00;;;7.00;;
60859;SDS011;46694;54.382;9.708;2022-10-22T16:26:32;15.60;;;7.50;;
60859;SDS011;46694;54.382;9.708;2022-10-22T16:29:12;12.20;;;6.40;;
60859;SDS011;46694;54.382;9.708;2022-10-22T16:31:52;16.30;;;7.17;;
60859;SDS011;46694;54.382;9.708;2022-10-22T16:34:32;18.63;;;6.70;;
60859;SDS011;46694;54.382;9.708;2022-10-22T16:37:11;22.50;;;9.97;;
60859;SDS011;46694;54.382;9.708;2022-10-22T16:39:51;15.40;;;7.17;;
60859;SDS011;46694;54.382;9.708;2022-10-22T16:42:31;19.00;;;7.60;;
60859;SDS011;46694;54.382;9.708;2022-10-22T16:45:10;16.63;;;7.77;;
60859;SDS011;46694;54.382;9.708;2022-10-22T16:47:50;14.13;;;7.30;;
60859;SDS011;46694;54.382;9.708;2022-10-22T16:50:29;19.27;;;6.90;;
60859;SDS011;46694;54.382;9.708;2022-10-22T16:53:09;17.30;;;8.27;;
60859;SDS011;46694;54.382;9.708;2022-10-22T16:55:49;20.40;;;7.70;;
60859;SDS011;46694;54.382;9.708;2022-10-22T16:58:29;21.83;;;8.07;;
60859;SDS011;46694;54.382;9.708;2022-10-22T17:01:08;22.60;;;8.10;;
60859;SDS011;46694;54.382;9.708;2022-10-22T17:03:48;17.90;;;8.37;;
60859;SDS011;46694;54.382;9.708;2022-10-22T17:06:28;26.80;;;8.70;;
60859;SDS011;46694;54.382;9.708;2022-10-22T17:09:08;21.40;;;9.80;;
60859;SDS011;46694;54.382;9.708;2022-10-22T17:11:49;22.37;;;10.40;;
60859;SDS011;46694;54.382;9.708;2022-10-22T17:14:29;29.37;;;10.70;;
60859;SDS011;46694;54.382;9.708;2022-10-22T17:17:08;23.43;;;10.93;;
60859;SDS011;46694;54.382;9.708;2022-10-22T17:19:48;20.47;;;10.73;;
60859;SDS011;46694;54.382;9.708;2022-10-22T17:22:28;29.57;;;13.40;;
60859;SDS011;46694;54.382;9.708;2022-10-22T17:25:14;17.43;;;12.43;;
60859;SDS011;46694;54.382;9.708;2022-10-22T17:28:00;28.27;;;14.40;;
60859;SDS011;46694;54.382;9.708;2022-10-22T17:30:40;13.67;;;9.70;;
60859;SDS011;46694;54.382;9.708;2022-10-22T17:33:20;24.13;;;11.70;;
60859;SDS011;46694;54.382;9.708;2022-10-22T17:35:59;12.73;;;9.90;;
60859;SDS011;46694;54.382;9.708;2022-10-22T17:38:40;15.77;;;10.53;;
60859;SDS011;46694;54.382;9.708;2022-10-22T17:41:21;12.37;;;10.97;;
60859;SDS011;46694;54.382;9.708;2022-10-22T17:44:07;18.50;;;12.07;;